sensor_id;sensor_type;location;lat;lon;timestamp;pressure;altitude;pressure_sealevel;temperature;humidity
60611;BME280;46439;51.164;13.572;2022-11-15T00:01:18;100036.83;;;8.23;87.45
60611;BME280;46439;51.164;13.572;2022-11-15T00:03:48;100038.16;;;8.26;87.65
60611;BME280;46439;51.164;13.572;2022-11-15T00:06:18;100033.58;;;8.27;87.55
60611;BME280;46439;51.164;13.572;2022-11-15T00:08:47;100037.96;;;8.31;87.89
60611;BME280;46439;51.164;13.572;2022-11-15T00:11:15;100035.92;;;8.34;87.89
60611;BME280;46439;51.164;13.572;2022-11-15T00:13:44;100034.77;;;8.40;88.08
60611;BME280;46439;51.164;13.572;2022-11-15T00:16:12;100034.06;;;8.39;88.15
60611;BME280;46439;51.164;13.572;2022-11-15T00:18:47;100030.73;;;8.39;88.06
60611;BME280;46439;51.164;13.572;2022-11-15T00:21:16;100028.08;;;8.37;87.85
60611;BME280;46439;51.164;13.572;2022-11-15T00:23:49;100030.02;;;8.37;87.91
60611;BME280;46439;51.164;13.572;2022-11-15T00:26:18;100026.14;;;8.40;87.95
60611;BME280;46439;51.164;13.572;2022-11-15T00:28:46;100027.78;;;8.40;88.17
60611;BME280;46439;51.164;13.572;2022-11-15T00:31:17;100025.63;;;8.40;88.03
60611;BME280;46439;51.164;13.572;2022-11-15T00:33:46;100031.28;;;8.40;88.03
60611;BME280;46439;51.164;13.572;2022-11-15T00:36:15;100029.90;;;8.38;87.99
60611;BME280;46439;51.164;13.572;2022-11-15T00:39:04;100031.39;;;8.33;87.98
60611;BME280;46439;51.164;13.572;2022-11-15T00:41:33;100030.46;;;8.27;87.65
60611;BME280;46439;51.164;13.572;2022-11-15T00:44:02;100030.45;;;8.23;87.73
60611;BME280;46439;51.164;13.572;2022-11-15T00:46:31;100028.95;;;8.20;87.68
60611;BME280;46439;51.164;13.572;2022-11-15T00:48:59;100030.09;;;8.18;87.53
60611;BME280;46439;51.164;13.572;2022-11-15T00:51:28;100027.69;;;8.15;87.59
60611;BME280;46439;51.164;13.572;2022-11-15T00:53:56;100031.70;;;8.13;87.50
60611;BME280;46439;51.164;13.572;2022-11-15T00:56:25;100036.34;;;8.11;87.55
60611;BME280;46439;51.164;13.572;2022-11-15T00:58:54;100033.48;;;8.07;87.48
60611;BME280;46439;51.164;13.572;2022-11-15T01:01:22;100025.65;;;8.03;87.41
60611;BME280;46439;51.164;13.572;2022-11-15T01:03:51;100029.77;;;8.03;87.39
60611;BME280;46439;51.164;13.572;2022-11-15T01:06:19;100028.41;;;8.06;87.66
60611;BME280;46439;51.164;13.572;2022-11-15T01:08:47;100030.40;;;8.07;87.58
60611;BME280;46439;51.164;13.572;2022-11-15T01:11:16;100020.02;;;8.07;87.61
60611;BME280;46439;51.164;13.572;2022-11-15T01:13:44;100017.83;;;8.08;87.53
60611;BME280;46439;51.164;13.572;2022-11-15T01:16:14;100018.86;;;8.05;87.65
60611;BME280;46439;51.164;13.572;2022-11-15T01:18:45;100015.13;;;8.01;87.50
60611;BME280;46439;51.164;13.572;2022-11-15T01:21:16;100015.42;;;8.02;87.55
60611;BME280;46439;51.164;13.572;2022-11-15T01:23:45;100010.42;;;8.02;87.53
60611;BME280;46439;51.164;13.572;2022-11-15T01:26:15;100007.75;;;8.00;87.53
60611;BME280;46439;51.164;13.572;2022-11-15T01:28:44;100005.80;;;8.00;87.48
60611;BME280;46439;51.164;13.572;2022-11-15T01:31:15;100002.25;;;8.01;87.69
60611;BME280;46439;51.164;13.572;2022-11-15T01:33:44;99998.30;;;7.99;87.68
60611;BME280;46439;51.164;13.572;2022-11-15T01:36:15;100000.30;;;7.99;87.75
60611;BME280;46439;51.164;13.572;2022-11-15T01:38:43;99997.34;;;8.02;87.89
60611;BME280;46439;51.164;13.572;2022-11-15T01:41:18;99991.41;;;8.03;87.72
60611;BME280;46439;51.164;13.572;2022-11-15T01:43:49;99985.09;;;8.04;87.82
60611;BME280;46439;51.164;13.572;2022-11-15T01:46:28;99980.86;;;8.05;87.74
60611;BME280;46439;51.164;13.572;2022-11-15T01:49:01;99979.55;;;8.07;87.97
60611;BME280;46439;51.164;13.572;2022-11-15T01:51:33;99981.90;;;8.14;88.02
60611;BME280;46439;51.164;13.572;2022-11-15T01:54:03;99980.05;;;8.21;88.15
60611;BME280;46439;51.164;13.572;2022-11-15T01:56:38;99979.83;;;8.26;88.32
60611;BME280;46439;51.164;13.572;2022-11-15T01:59:12;99977.08;;;8.29;88.49
60611;BME280;46439;51.164;13.572;2022-11-15T02:01:41;99970.05;;;8.31;88.44
60611;BME280;46439;51.164;13.572;2022-11-15T02:04:13;99970.46;;;8.32;88.39
60611;BME280;46439;51.164;13.572;2022-11-15T02:06:44;99969.06;;;8.34;88.24
60611;BME280;46439;51.164;13.572;2022-11-15T02:09:15;99971.92;;;8.32;88.24
60611;BME280;46439;51.164;13.572;2022-11-15T02:11:45;99969.25;;;8.27;88.14
60611;BME280;46439;51.164;13.572;2022-11-15T02:14:17;99967.27;;;8.23;88.13
60611;BME280;46439;51.164;13.572;2022-11-15T02:16:52;99968.23;;;8.24;88.06
60611;BME280;46439;51.164;13.572;2022-11-15T02:19:37;99967.83;;;8.28;88.26
60611;BME280;46439;51.164;13.572;2022-11-15T02:22:19;99963.80;;;8.31;88.25
60611;BME280;46439;51.164;13.572;2022-11-15T02:25:02;99968.08;;;8.33;88.40
60611;BME280;46439;51.164;13.572;2022-11-15T02:28:02;99962.92;;;8.36;88.60
60611;BME280;46439;51.164;13.572;2022-11-15T02:30:42;99955.94;;;8.34;88.68
60611;BME280;46439;51.164;13.572;2022-11-15T02:33:22;99950.61;;;8.37;88.55
60611;BME280;46439;51.164;13.572;2022-11-15T02:36:00;99948.98;;;8.40;88.47
60611;BME280;46439;51.164;13.572;2022-11-15T02:38:33;99949.38;;;8.42;88.61
60611;BME280;46439;51.164;13.572;2022-11-15T02:41:06;99943.13;;;8.43;88.63
60611;BME280;46439;51.164;13.572;2022-11-15T02:43:40;99939.80;;;8.48;88.85
60611;BME280;46439;51.164;13.572;2022-11-15T02:46:27;99934.30;;;8.49;88.86
60611;BME280;46439;51.164;13.572;2022-11-15T02:49:19;99931.17;;;8.44;88.70
60611;BME280;46439;51.164;13.572;2022-11-15T02:51:49;99922.98;;;8.39;88.63
60611;BME280;46439;51.164;13.572;2022-11-15T02:54:22;99922.96;;;8.37;88.38
60611;BME280;46439;51.164;13.572;2022-11-15T02:56:54;99920.02;;;8.36;88.52
60611;BME280;46439;51.164;13.572;2022-11-15T03:02:34;99917.59;;;8.34;88.61
60611;BME280;46439;51.164;13.572;2022-11-15T03:05:13;99917.39;;;8.34;88.47
60611;BME280;46439;51.164;13.572;2022-11-15T03:07:50;99916.71;;;8.34;88.40
60611;BME280;46439;51.164;13.572;2022-11-15T03:10:23;99923.00;;;8.38;88.78
60611;BME280;46439;51.164;13.572;2022-11-15T03:12:57;99925.84;;;8.40;88.74
60611;BME280;46439;51.164;13.572;2022-11-15T03:15:30;99922.84;;;8.41;88.87
60611;BME280;46439;51.164;13.572;2022-11-15T03:18:04;99923.69;;;8.42;88.90
60611;BME280;46439;51.164;13.572;2022-11-15T03:20:33;99921.97;;;8.43;88.78
60611;BME280;46439;51.164;13.572;2022-11-15T03:23:06;99918.08;;;8.46;88.94
60611;BME280;46439;51.164;13.572;2022-11-15T03:25:38;99917.64;;;8.48;88.86
60611;BME280;46439;51.164;13.572;2022-11-15T03:28:11;99911.60;;;8.53;89.21
60611;BME280;46439;51.164;13.572;2022-11-15T03:30:41;99907.19;;;8.54;89.15
60611;BME280;46439;51.164;13.572;2022-11-15T03:33:12;99903.29;;;8.52;89.15
60611;BME280;46439;51.164;13.572;2022-11-15T03:35:44;99904.27;;;8.51;89.06
60611;BME280;46439;51.164;13.572;2022-11-15T03:38:19;99902.09;;;8.51;89.07
60611;BME280;46439;51.164;13.572;2022-11-15T03:40:51;99901.88;;;8.54;89.21
60611;BME280;46439;51.164;13.572;2022-11-15T03:43:29;99898.71;;;8.53;89.12
60611;BME280;46439;51.164;13.572;2022-11-15T03:46:02;99894.44;;;8.52;89.21
60611;BME280;46439;51.164;13.572;2022-11-15T03:48:37;99891.11;;;8.52;89.15
60611;BME280;46439;51.164;13.572;2022-11-15T03:51:08;99889.16;;;8.48;89.19
60611;BME280;46439;51.164;13.572;2022-11-15T03:53:37;99889.72;;;8.44;89.04
60611;BME280;46439;51.164;13.572;2022-11-15T03:56:07;99884.75;;;8.44;88.93
60611;BME280;46439;51.164;13.572;2022-11-15T03:58:35;99887.98;;;8.44;88.99
60611;BME280;46439;51.164;13.572;2022-11-15T04:01:04;99886.09;;;8.43;88.95
60611;BME280;46439;51.164;13.572;2022-11-15T04:03:32;99885.99;;;8.42;89.14
60611;BME280;46439;51.164;13.572;2022-11-15T04:06:00;99886.95;;;8.42;89.04
60611;BME280;46439;51.164;13.572;2022-11-15T04:08:29;99881.45;;;8.41;89.06
60611;BME280;46439;51.164;13.572;2022-11-15T04:10:57;99880.27;;;8.39;88.94
60611;BME280;46439;51.164;13.572;2022-11-15T04:13:25;99876.44;;;8.36;88.97
60611;BME280;46439;51.164;13.572;2022-11-15T04:15:54;99876.20;;;8.28;88.77
60611;BME280;46439;51.164;13.572;2022-11-15T04:18:22;99874.63;;;8.20;88.63
60611;BME280;46439;51.164;13.572;2022-11-15T04:20:52;99876.85;;;8.17;88.36
60611;BME280;46439;51.164;13.572;2022-11-15T04:23:39;99876.95;;;8.16;88.53
60611;BME280;46439;51.164;13.572;2022-11-15T04:26:34;99878.83;;;8.17;88.72
60611;BME280;46439;51.164;13.572;2022-11-15T04:29:02;99875.31;;;8.18;88.70
60611;BME280;46439;51.164;13.572;2022-11-15T04:31:50;99880.38;;;8.23;89.01
60611;BME280;46439;51.164;13.572;2022-11-15T04:34:18;99880.21;;;8.24;88.95
60611;BME280;46439;51.164;13.572;2022-11-15T04:36:47;99875.98;;;8.24;88.90
60611;BME280;46439;51.164;13.572;2022-11-15T04:39:34;99874.80;;;8.23;89.05
60611;BME280;46439;51.164;13.572;2022-11-15T04:42:03;99873.73;;;8.21;89.06
60611;BME280;46439;51.164;13.572;2022-11-15T04:44:31;99874.66;;;8.21;88.82
60611;BME280;46439;51.164;13.572;2022-11-15T04:47:00;99872.05;;;8.20;89.02
60611;BME280;46439;51.164;13.572;2022-11-15T04:49:28;99867.77;;;8.20;89.03
60611;BME280;46439;51.164;13.572;2022-11-15T04:51:57;99862.96;;;8.20;89.25
60611;BME280;46439;51.164;13.572;2022-11-15T04:54:25;99858.39;;;8.17;88.91
60611;BME280;46439;51.164;13.572;2022-11-15T04:56:54;99861.84;;;8.13;88.74
60611;BME280;46439;51.164;13.572;2022-11-15T04:59:22;99859.48;;;8.10;88.70
60611;BME280;46439;51.164;13.572;2022-11-15T05:01:51;99859.13;;;8.07;88.70
60611;BME280;46439;51.164;13.572;2022-11-15T05:04:19;99857.48;;;8.07;88.69
60611;BME280;46439;51.164;13.572;2022-11-15T05:06:49;99851.11;;;8.08;88.82
60611;BME280;46439;51.164;13.572;2022-11-15T05:09:19;99850.20;;;8.03;88.68
60611;BME280;46439;51.164;13.572;2022-11-15T05:11:48;99849.77;;;8.02;88.59
60611;BME280;46439;51.164;13.572;2022-11-15T05:14:16;99843.89;;;8.04;88.74
60611;BME280;46439;51.164;13.572;2022-11-15T05:16:45;99843.79;;;8.03;88.91
60611;BME280;46439;51.164;13.572;2022-11-15T05:19:13;99843.88;;;8.02;88.77
60611;BME280;46439;51.164;13.572;2022-11-15T05:21:42;99847.23;;;8.01;88.94
60611;BME280;46439;51.164;13.572;2022-11-15T05:24:12;99850.86;;;7.99;88.85
60611;BME280;46439;51.164;13.572;2022-11-15T05:26:40;99853.55;;;7.99;88.91
60611;BME280;46439;51.164;13.572;2022-11-15T05:29:10;99849.11;;;7.97;88.69
60611;BME280;46439;51.164;13.572;2022-11-15T05:31:41;99850.05;;;7.95;88.72
60611;BME280;46439;51.164;13.572;2022-11-15T05:34:10;99851.09;;;7.94;88.80
60611;BME280;46439;51.164;13.572;2022-11-15T05:36:40;99846.07;;;7.92;88.63
60611;BME280;46439;51.164;13.572;2022-11-15T05:39:10;99846.78;;;7.92;88.97
60611;BME280;46439;51.164;13.572;2022-11-15T05:41:41;99846.67;;;7.91;88.88
60611;BME280;46439;51.164;13.572;2022-11-15T05:44:16;99846.08;;;7.90;88.89
60611;BME280;46439;51.164;13.572;2022-11-15T05:46:47;99846.61;;;7.90;89.02
60611;BME280;46439;51.164;13.572;2022-11-15T05:49:18;99850.36;;;7.87;88.89
60611;BME280;46439;51.164;13.572;2022-11-15T05:51:48;99847.32;;;7.83;88.71
60611;BME280;46439;51.164;13.572;2022-11-15T05:54:19;99846.43;;;7.85;88.83
60611;BME280;46439;51.164;13.572;2022-11-15T05:56:48;99844.35;;;7.87;88.95
60611;BME280;46439;51.164;13.572;2022-11-15T05:59:17;99844.20;;;7.91;89.09
60611;BME280;46439;51.164;13.572;2022-11-15T06:01:46;99836.11;;;7.89;89.13
60611;BME280;46439;51.164;13.572;2022-11-15T06:04:15;99838.06;;;7.86;89.07
60611;BME280;46439;51.164;13.572;2022-11-15T06:06:43;99836.21;;;7.83;88.94
60611;BME280;46439;51.164;13.572;2022-11-15T06:09:12;99841.00;;;7.79;88.85
60611;BME280;46439;51.164;13.572;2022-11-15T06:11:40;99843.10;;;7.74;88.67
60611;BME280;46439;51.164;13.572;2022-11-15T06:14:09;99842.62;;;7.72;88.79
60611;BME280;46439;51.164;13.572;2022-11-15T06:16:37;99840.66;;;7.68;88.68
60611;BME280;46439;51.164;13.572;2022-11-15T06:19:07;99839.58;;;7.65;88.65
60611;BME280;46439;51.164;13.572;2022-11-15T06:21:35;99843.80;;;7.61;88.42
60611;BME280;46439;51.164;13.572;2022-11-15T06:24:06;99844.89;;;7.57;88.44
60611;BME280;46439;51.164;13.572;2022-11-15T06:26:34;99847.49;;;7.53;88.37
60611;BME280;46439;51.164;13.572;2022-11-15T06:29:04;99852.60;;;7.52;88.51
60611;BME280;46439;51.164;13.572;2022-11-15T06:31:32;99852.42;;;7.52;88.44
60611;BME280;46439;51.164;13.572;2022-11-15T06:34:01;99853.56;;;7.49;88.38
60611;BME280;46439;51.164;13.572;2022-11-15T06:36:29;99849.17;;;7.45;88.31
60611;BME280;46439;51.164;13.572;2022-11-15T06:38:58;99850.04;;;7.44;88.17
60611;BME280;46439;51.164;13.572;2022-11-15T06:41:26;99847.61;;;7.43;88.15
60611;BME280;46439;51.164;13.572;2022-11-15T06:43:55;99849.27;;;7.44;88.16
60611;BME280;46439;51.164;13.572;2022-11-15T06:46:24;99848.02;;;7.44;88.21
60611;BME280;46439;51.164;13.572;2022-11-15T06:48:53;99852.86;;;7.44;88.30
60611;BME280;46439;51.164;13.572;2022-11-15T06:51:22;99857.58;;;7.47;88.31
60611;BME280;46439;51.164;13.572;2022-11-15T06:53:50;99857.39;;;7.53;88.44
60611;BME280;46439;51.164;13.572;2022-11-15T06:56:18;99859.77;;;7.57;88.65
60611;BME280;46439;51.164;13.572;2022-11-15T06:58:47;99866.50;;;7.61;88.75
60611;BME280;46439;51.164;13.572;2022-11-15T07:01:15;99866.57;;;7.62;88.68
60611;BME280;46439;51.164;13.572;2022-11-15T07:03:44;99867.58;;;7.64;88.83
60611;BME280;46439;51.164;13.572;2022-11-15T07:06:14;99864.86;;;7.63;88.59
60611;BME280;46439;51.164;13.572;2022-11-15T07:08:42;99868.69;;;7.64;88.69
60611;BME280;46439;51.164;13.572;2022-11-15T07:11:11;99865.42;;;7.68;88.64
60611;BME280;46439;51.164;13.572;2022-11-15T07:13:39;99869.61;;;7.67;88.76
60611;BME280;46439;51.164;13.572;2022-11-15T07:16:10;99874.85;;;7.68;88.70
60611;BME280;46439;51.164;13.572;2022-11-15T07:18:40;99878.88;;;7.75;88.92
60611;BME280;46439;51.164;13.572;2022-11-15T07:21:10;99879.27;;;7.79;88.90
60611;BME280;46439;51.164;13.572;2022-11-15T07:23:39;99875.02;;;7.82;89.08
60611;BME280;46439;51.164;13.572;2022-11-15T07:26:08;99876.09;;;7.87;89.19
60611;BME280;46439;51.164;13.572;2022-11-15T07:28:37;99876.02;;;7.92;89.29
60611;BME280;46439;51.164;13.572;2022-11-15T07:31:07;99879.52;;;7.97;89.33
60611;BME280;46439;51.164;13.572;2022-11-15T07:33:37;99882.51;;;8.06;89.55
60611;BME280;46439;51.164;13.572;2022-11-15T07:36:08;99889.01;;;8.17;89.75
60611;BME280;46439;51.164;13.572;2022-11-15T07:38:37;99885.70;;;8.28;89.72
60611;BME280;46439;51.164;13.572;2022-11-15T07:41:06;99881.20;;;8.37;89.95
60611;BME280;46439;51.164;13.572;2022-11-15T07:43:35;99877.04;;;8.42;90.06
60611;BME280;46439;51.164;13.572;2022-11-15T07:46:07;99881.15;;;8.46;89.99
60611;BME280;46439;51.164;13.572;2022-11-15T07:48:37;99875.23;;;8.49;90.05
60611;BME280;46439;51.164;13.572;2022-11-15T07:51:09;99875.08;;;8.54;89.89
60611;BME280;46439;51.164;13.572;2022-11-15T07:53:38;99876.05;;;8.52;89.80
60611;BME280;46439;51.164;13.572;2022-11-15T07:56:09;99878.10;;;8.53;89.89
60611;BME280;46439;51.164;13.572;2022-11-15T07:58:38;99872.66;;;8.52;89.75
60611;BME280;46439;51.164;13.572;2022-11-15T08:01:07;99869.65;;;8.51;89.80
60611;BME280;46439;51.164;13.572;2022-11-15T08:03:37;99874.56;;;8.55;89.79
60611;BME280;46439;51.164;13.572;2022-11-15T08:06:06;99866.36;;;8.56;89.79
60611;BME280;46439;51.164;13.572;2022-11-15T08:08:35;99869.61;;;8.61;89.81
60611;BME280;46439;51.164;13.572;2022-11-15T08:11:03;99868.41;;;8.65;89.94
60611;BME280;46439;51.164;13.572;2022-11-15T08:13:32;99872.17;;;8.72;90.04
60611;BME280;46439;51.164;13.572;2022-11-15T08:16:01;99870.94;;;8.77;90.14
60611;BME280;46439;51.164;13.572;2022-11-15T08:18:31;99873.82;;;8.82;90.20
60611;BME280;46439;51.164;13.572;2022-11-15T08:21:01;99866.08;;;8.89;90.13
60611;BME280;46439;51.164;13.572;2022-11-15T08:23:30;99866.71;;;8.91;90.21
60611;BME280;46439;51.164;13.572;2022-11-15T08:26:02;99865.94;;;8.92;90.26
60611;BME280;46439;51.164;13.572;2022-11-15T08:28:31;99865.02;;;8.95;90.07
60611;BME280;46439;51.164;13.572;2022-11-15T08:31:00;99862.53;;;9.01;90.06
60611;BME280;46439;51.164;13.572;2022-11-15T08:33:29;99864.48;;;9.05;90.11
60611;BME280;46439;51.164;13.572;2022-11-15T08:35:59;99859.25;;;9.07;90.38
60611;BME280;46439;51.164;13.572;2022-11-15T08:38:28;99855.77;;;9.07;90.15
60611;BME280;46439;51.164;13.572;2022-11-15T08:41:03;99855.62;;;9.09;90.09
60611;BME280;46439;51.164;13.572;2022-11-15T08:43:32;99854.23;;;9.10;89.97
60611;BME280;46439;51.164;13.572;2022-11-15T08:46:01;99850.70;;;9.12;89.96
60611;BME280;46439;51.164;13.572;2022-11-15T08:48:29;99849.64;;;9.17;89.95
60611;BME280;46439;51.164;13.572;2022-11-15T08:50:58;99845.69;;;9.22;90.02
60611;BME280;46439;51.164;13.572;2022-11-15T08:53:26;99846.61;;;9.27;90.17
60611;BME280;46439;51.164;13.572;2022-11-15T08:55:55;99844.45;;;9.31;90.32
60611;BME280;46439;51.164;13.572;2022-11-15T08:58:23;99849.09;;;9.38;90.38
60611;BME280;46439;51.164;13.572;2022-11-15T09:00:52;99853.73;;;9.46;90.52
60611;BME280;46439;51.164;13.572;2022-11-15T09:03:20;99852.20;;;9.55;90.63
60611;BME280;46439;51.164;13.572;2022-11-15T09:05:49;99849.18;;;9.61;90.62
60611;BME280;46439;51.164;13.572;2022-11-15T09:08:21;99845.89;;;9.66;90.54
60611;BME280;46439;51.164;13.572;2022-11-15T09:10:50;99845.23;;;9.72;90.65
60611;BME280;46439;51.164;13.572;2022-11-15T09:13:18;99844.47;;;9.77;90.84
60611;BME280;46439;51.164;13.572;2022-11-15T09:15:47;99840.25;;;9.83;90.87
60611;BME280;46439;51.164;13.572;2022-11-15T09:18:15;99842.27;;;9.86;90.85
60611;BME280;46439;51.164;13.572;2022-11-15T09:20:44;99842.97;;;9.90;90.84
60611;BME280;46439;51.164;13.572;2022-11-15T09:23:12;99843.13;;;9.93;90.78
60611;BME280;46439;51.164;13.572;2022-11-15T09:25:41;99842.27;;;9.96;90.72
60611;BME280;46439;51.164;13.572;2022-11-15T09:28:10;99844.80;;;9.97;90.55
60611;BME280;46439;51.164;13.572;2022-11-15T09:30:38;99845.91;;;10.04;90.69
60611;BME280;46439;51.164;13.572;2022-11-15T09:33:09;99843.45;;;10.12;90.83
60611;BME280;46439;51.164;13.572;2022-11-15T09:35:38;99837.15;;;10.20;91.04
60611;BME280;46439;51.164;13.572;2022-11-15T09:38:07;99834.12;;;10.25;90.81
60611;BME280;46439;51.164;13.572;2022-11-15T09:40:37;99831.00;;;10.30;91.13
60611;BME280;46439;51.164;13.572;2022-11-15T09:43:25;99826.33;;;10.39;91.22
60611;BME280;46439;51.164;13.572;2022-11-15T09:46:06;99822.91;;;10.50;91.62
60611;BME280;46439;51.164;13.572;2022-11-15T09:48:53;99823.04;;;10.58;91.48
60611;BME280;46439;51.164;13.572;2022-11-15T09:51:34;99824.05;;;10.66;91.58
60611;BME280;46439;51.164;13.572;2022-11-15T09:54:09;99823.39;;;10.75;91.63
60611;BME280;46439;51.164;13.572;2022-11-15T09:56:42;99813.98;;;10.83;91.68
60611;BME280;46439;51.164;13.572;2022-11-15T09:59:35;99814.16;;;10.90;91.74
60611;BME280;46439;51.164;13.572;2022-11-15T10:02:20;99810.37;;;10.95;91.63
60611;BME280;46439;51.164;13.572;2022-11-15T10:04:52;99807.79;;;11.00;91.72
60611;BME280;46439;51.164;13.572;2022-11-15T10:07:25;99803.69;;;11.04;91.76
60611;BME280;46439;51.164;13.572;2022-11-15T10:10:00;99805.13;;;11.08;91.62
60611;BME280;46439;51.164;13.572;2022-11-15T10:12:31;99800.24;;;11.13;91.57
60611;BME280;46439;51.164;13.572;2022-11-15T10:15:03;99800.84;;;11.17;91.63
60611;BME280;46439;51.164;13.572;2022-11-15T10:17:49;99794.84;;;11.25;91.74
60611;BME280;46439;51.164;13.572;2022-11-15T10:20:24;99793.04;;;11.34;91.91
60611;BME280;46439;51.164;13.572;2022-11-15T10:22:58;99786.14;;;11.40;91.89
60611;BME280;46439;51.164;13.572;2022-11-15T10:25:29;99785.48;;;11.44;91.92
60611;BME280;46439;51.164;13.572;2022-11-15T10:28:00;99782.20;;;11.47;91.89
60611;BME280;46439;51.164;13.572;2022-11-15T10:30:35;99774.69;;;11.53;91.88
60611;BME280;46439;51.164;13.572;2022-11-15T10:33:16;99770.90;;;11.59;91.91
60611;BME280;46439;51.164;13.572;2022-11-15T10:35:46;99763.56;;;11.65;92.07
60611;BME280;46439;51.164;13.572;2022-11-15T10:38:14;99758.46;;;11.70;92.01
60611;BME280;46439;51.164;13.572;2022-11-15T10:40:42;99756.43;;;11.73;91.92
60611;BME280;46439;51.164;13.572;2022-11-15T10:43:18;99752.94;;;11.79;91.81
60611;BME280;46439;51.164;13.572;2022-11-15T10:45:47;99749.13;;;11.84;91.99
60611;BME280;46439;51.164;13.572;2022-11-15T10:48:26;99744.80;;;11.90;92.02
60611;BME280;46439;51.164;13.572;2022-11-15T10:50:56;99746.63;;;11.96;91.99
60611;BME280;46439;51.164;13.572;2022-11-15T10:53:31;99739.50;;;12.00;92.01
60611;BME280;46439;51.164;13.572;2022-11-15T10:56:03;99745.48;;;12.04;91.87
60611;BME280;46439;51.164;13.572;2022-11-15T10:58:37;99734.95;;;12.07;92.06
60611;BME280;46439;51.164;13.572;2022-11-15T11:01:18;99733.34;;;12.11;91.90
60611;BME280;46439;51.164;13.572;2022-11-15T11:04:00;99733.65;;;12.19;92.00
60611;BME280;46439;51.164;13.572;2022-11-15T11:06:29;99729.58;;;12.25;92.13
60611;BME280;46439;51.164;13.572;2022-11-15T11:09:00;99728.83;;;12.31;92.21
60611;BME280;46439;51.164;13.572;2022-11-15T11:11:45;99723.16;;;12.36;92.26
60611;BME280;46439;51.164;13.572;2022-11-15T11:14:22;99721.30;;;12.41;92.21
60611;BME280;46439;51.164;13.572;2022-11-15T11:16:55;99718.04;;;12.47;92.29
60611;BME280;46439;51.164;13.572;2022-11-15T11:19:48;99713.67;;;12.53;92.25
60611;BME280;46439;51.164;13.572;2022-11-15T11:22:25;99709.11;;;12.57;92.37
60611;BME280;46439;51.164;13.572;2022-11-15T11:25:20;99706.55;;;12.60;92.14
60611;BME280;46439;51.164;13.572;2022-11-15T11:28:03;99705.59;;;12.65;92.23
60611;BME280;46439;51.164;13.572;2022-11-15T11:30:43;99706.33;;;12.70;92.37
60611;BME280;46439;51.164;13.572;2022-11-15T11:33:18;99703.53;;;12.75;92.40
60611;BME280;46439;51.164;13.572;2022-11-15T11:35:54;99697.38;;;12.78;92.33
60611;BME280;46439;51.164;13.572;2022-11-15T11:38:38;99692.84;;;12.80;92.24
60611;BME280;46439;51.164;13.572;2022-11-15T11:41:08;99692.61;;;12.83;92.22
60611;BME280;46439;51.164;13.572;2022-11-15T11:43:45;99687.84;;;12.86;92.07
60611;BME280;46439;51.164;13.572;2022-11-15T11:46:30;99684.53;;;12.86;92.08
60611;BME280;46439;51.164;13.572;2022-11-15T11:49:08;99683.41;;;12.88;92.14
60611;BME280;46439;51.164;13.572;2022-11-15T11:51:40;99679.02;;;12.92;92.16
60611;BME280;46439;51.164;13.572;2022-11-15T11:54:14;99680.84;;;12.94;92.19
60611;BME280;46439;51.164;13.572;2022-11-15T11:56:48;99676.84;;;12.96;92.11
60611;BME280;46439;51.164;13.572;2022-11-15T11:59:21;99673.71;;;12.98;92.13
60611;BME280;46439;51.164;13.572;2022-11-15T12:01:53;99666.89;;;13.01;92.04
60611;BME280;46439;51.164;13.572;2022-11-15T12:04:35;99661.07;;;13.02;92.00
60611;BME280;46439;51.164;13.572;2022-11-15T12:07:03;99653.98;;;13.02;91.85
60611;BME280;46439;51.164;13.572;2022-11-15T12:09:41;99650.48;;;13.03;91.69
60611;BME280;46439;51.164;13.572;2022-11-15T12:12:16;99642.56;;;13.02;91.80
60611;BME280;46439;51.164;13.572;2022-11-15T12:14:49;99641.19;;;13.03;91.78
60611;BME280;46439;51.164;13.572;2022-11-15T12:17:21;99637.77;;;13.04;91.77
60611;BME280;46439;51.164;13.572;2022-11-15T12:19:51;99632.61;;;13.06;91.87
60611;BME280;46439;51.164;13.572;2022-11-15T12:22:22;99632.25;;;13.10;91.98
60611;BME280;46439;51.164;13.572;2022-11-15T12:24:56;99629.13;;;13.13;92.02
60611;BME280;46439;51.164;13.572;2022-11-15T12:27:33;99628.85;;;13.16;91.96
60611;BME280;46439;51.164;13.572;2022-11-15T12:30:10;99622.27;;;13.19;91.95
60611;BME280;46439;51.164;13.572;2022-11-15T12:32:49;99616.03;;;13.21;91.90
60611;BME280;46439;51.164;13.572;2022-11-15T12:35:38;99611.06;;;13.23;91.89
60611;BME280;46439;51.164;13.572;2022-11-15T12:38:11;99608.20;;;13.23;91.80
60611;BME280;46439;51.164;13.572;2022-11-15T12:41:11;99607.16;;;13.25;91.88
60611;BME280;46439;51.164;13.572;2022-11-15T12:43:40;99605.32;;;13.28;91.87
60611;BME280;46439;51.164;13.572;2022-11-15T12:46:19;99603.45;;;13.32;91.86
60611;BME280;46439;51.164;13.572;2022-11-15T12:48:54;99598.81;;;13.34;91.97
60611;BME280;46439;51.164;13.572;2022-11-15T12:54:55;99590.85;;;13.38;91.95
60611;BME280;46439;51.164;13.572;2022-11-15T12:57:43;99584.02;;;13.38;91.79
60611;BME280;46439;51.164;13.572;2022-11-15T13:00:44;99580.48;;;13.38;91.87
60611;BME280;46439;51.164;13.572;2022-11-15T13:03:26;99579.39;;;13.34;91.70
60611;BME280;46439;51.164;13.572;2022-11-15T13:08:54;99585.84;;;13.26;91.41
60611;BME280;46439;51.164;13.572;2022-11-15T13:11:44;99579.95;;;13.25;91.42
60611;BME280;46439;51.164;13.572;2022-11-15T13:14:39;99576.54;;;13.25;91.43
60611;BME280;46439;51.164;13.572;2022-11-15T13:20:11;99573.00;;;13.21;91.37
60611;BME280;46439;51.164;13.572;2022-11-15T13:22:46;99574.20;;;13.21;91.32
60611;BME280;46439;51.164;13.572;2022-11-15T13:25:57;99574.61;;;13.22;91.40
60611;BME280;46439;51.164;13.572;2022-11-15T13:28:33;99572.45;;;13.23;91.27
60611;BME280;46439;51.164;13.572;2022-11-15T13:33:59;99572.99;;;13.23;91.27
60611;BME280;46439;51.164;13.572;2022-11-15T13:36:31;99569.63;;;13.24;91.25
60611;BME280;46439;51.164;13.572;2022-11-15T13:39:04;99569.52;;;13.24;91.32